sensor_id;sensor_type;location;lat;lon;timestamp;temperature;humidity
3770;DHT22;1900;48.890;9.190;2024-01-07T00:01:12;9.80;64.50
3770;DHT22;1900;48.890;9.190;2024-01-07T00:03:40;9.80;64.40
3770;DHT22;1900;48.890;9.190;2024-01-07T00:06:09;9.70;64.40
3770;DHT22;1900;48.890;9.190;2024-01-07T00:08:35;9.80;64.60
3770;DHT22;1900;48.890;9.190;2024-01-07T00:11:01;9.80;64.60
3770;DHT22;1900;48.890;9.190;2024-01-07T00:13:27;9.80;64.60
3770;DHT22;1900;48.890;9.190;2024-01-07T00:15:52;9.70;64.50
3770;DHT22;1900;48.890;9.190;2024-01-07T00:18:20;9.70;64.60
3770;DHT22;1900;48.890;9.190;2024-01-07T00:20:45;9.70;64.60
3770;DHT22;1900;48.890;9.190;2024-01-07T00:23:11;9.70;64.60
3770;DHT22;1900;48.890;9.190;2024-01-07T00:25:37;9.70;64.60
3770;DHT22;1900;48.890;9.190;2024-01-07T00:28:02;9.70;64.50
3770;DHT22;1900;48.890;9.190;2024-01-07T00:30:28;9.70;64.40
3770;DHT22;1900;48.890;9.190;2024-01-07T00:32:55;9.60;64.30
3770;DHT22;1900;48.890;9.190;2024-01-07T00:35:20;9.60;64.40
3770;DHT22;1900;48.890;9.190;2024-01-07T00:37:46;9.60;64.50
3770;DHT22;1900;48.890;9.190;2024-01-07T00:40:12;9.60;64.60
3770;DHT22;1900;48.890;9.190;2024-01-07T00:42:38;9.60;64.60
3770;DHT22;1900;48.890;9.190;2024-01-07T00:45:04;9.60;64.60
3770;DHT22;1900;48.890;9.190;2024-01-07T00:47:29;9.60;64.80
3770;DHT22;1900;48.890;9.190;2024-01-07T00:49:55;9.60;64.80
3770;DHT22;1900;48.890;9.190;2024-01-07T00:52:21;9.60;64.90
3770;DHT22;1900;48.890;9.190;2024-01-07T00:54:48;9.60;65.00
3770;DHT22;1900;48.890;9.190;2024-01-07T00:57:14;9.60;65.00
3770;DHT22;1900;48.890;9.190;2024-01-07T00:59:41;9.70;65.20
3770;DHT22;1900;48.890;9.190;2024-01-07T01:02:06;9.70;65.20
3770;DHT22;1900;48.890;9.190;2024-01-07T01:04:32;9.70;65.30
3770;DHT22;1900;48.890;9.190;2024-01-07T01:06:58;9.70;65.30
3770;DHT22;1900;48.890;9.190;2024-01-07T01:09:24;9.80;65.30
3770;DHT22;1900;48.890;9.190;2024-01-07T01:11:50;9.80;65.30
3770;DHT22;1900;48.890;9.190;2024-01-07T01:14:16;9.80;65.30
3770;DHT22;1900;48.890;9.190;2024-01-07T01:16:42;9.80;65.10
3770;DHT22;1900;48.890;9.190;2024-01-07T01:19:08;9.80;65.00
3770;DHT22;1900;48.890;9.190;2024-01-07T01:21:35;9.80;65.00
3770;DHT22;1900;48.890;9.190;2024-01-07T01:24:00;9.70;64.90
3770;DHT22;1900;48.890;9.190;2024-01-07T01:26:26;9.80;65.00
3770;DHT22;1900;48.890;9.190;2024-01-07T01:28:52;9.80;65.10
3770;DHT22;1900;48.890;9.190;2024-01-07T01:31:18;9.80;65.80
3770;DHT22;1900;48.890;9.190;2024-01-07T01:33:44;9.80;65.10
3770;DHT22;1900;48.890;9.190;2024-01-07T01:36:09;9.80;65.10
3770;DHT22;1900;48.890;9.190;2024-01-07T01:38:35;9.80;65.20
3770;DHT22;1900;48.890;9.190;2024-01-07T01:41:01;9.80;65.00
3770;DHT22;1900;48.890;9.190;2024-01-07T01:43:28;9.80;65.00
3770;DHT22;1900;48.890;9.190;2024-01-07T01:45:55;9.80;65.10
3770;DHT22;1900;48.890;9.190;2024-01-07T01:48:22;9.80;65.20
3770;DHT22;1900;48.890;9.190;2024-01-07T01:50:48;9.80;65.30
3770;DHT22;1900;48.890;9.190;2024-01-07T01:53:15;9.80;65.30
3770;DHT22;1900;48.890;9.190;2024-01-07T01:55:42;9.80;65.30
3770;DHT22;1900;48.890;9.190;2024-01-07T01:58:13;9.80;65.20
3770;DHT22;1900;48.890;9.190;2024-01-07T02:00:40;9.80;65.20
3770;DHT22;1900;48.890;9.190;2024-01-07T02:03:06;9.80;65.20
3770;DHT22;1900;48.890;9.190;2024-01-07T02:05:32;9.80;65.20
3770;DHT22;1900;48.890;9.190;2024-01-07T02:07:58;9.90;65.20
3770;DHT22;1900;48.890;9.190;2024-01-07T02:10:24;9.80;65.10
3770;DHT22;1900;48.890;9.190;2024-01-07T02:12:50;9.80;65.10
3770;DHT22;1900;48.890;9.190;2024-01-07T02:15:16;9.80;65.10
3770;DHT22;1900;48.890;9.190;2024-01-07T02:17:42;9.80;65.10
3770;DHT22;1900;48.890;9.190;2024-01-07T02:20:08;9.80;65.10
3770;DHT22;1900;48.890;9.190;2024-01-07T02:22:34;9.80;65.10
3770;DHT22;1900;48.890;9.190;2024-01-07T02:24:59;9.80;65.10
3770;DHT22;1900;48.890;9.190;2024-01-07T02:27:25;9.80;65.20
3770;DHT22;1900;48.890;9.190;2024-01-07T02:29:51;9.80;65.20
3770;DHT22;1900;48.890;9.190;2024-01-07T02:32:17;9.80;65.10
3770;DHT22;1900;48.890;9.190;2024-01-07T02:34:44;9.80;65.10
3770;DHT22;1900;48.890;9.190;2024-01-07T02:37:09;9.80;65.10
3770;DHT22;1900;48.890;9.190;2024-01-07T02:39:35;9.80;65.00
3770;DHT22;1900;48.890;9.190;2024-01-07T02:42:01;9.80;65.10
3770;DHT22;1900;48.890;9.190;2024-01-07T02:44:27;9.70;65.00
3770;DHT22;1900;48.890;9.190;2024-01-07T02:46:53;9.80;65.10
3770;DHT22;1900;48.890;9.190;2024-01-07T02:49:19;9.70;65.00
3770;DHT22;1900;48.890;9.190;2024-01-07T02:51:45;9.70;65.10
3770;DHT22;1900;48.890;9.190;2024-01-07T02:54:15;9.70;65.10
3770;DHT22;1900;48.890;9.190;2024-01-07T02:56:41;9.70;65.00
3770;DHT22;1900;48.890;9.190;2024-01-07T02:59:07;9.70;65.00
3770;DHT22;1900;48.890;9.190;2024-01-07T03:01:33;9.70;65.10
3770;DHT22;1900;48.890;9.190;2024-01-07T03:04:06;9.70;65.10
3770;DHT22;1900;48.890;9.190;2024-01-07T03:06:32;9.70;65.00
3770;DHT22;1900;48.890;9.190;2024-01-07T03:08:57;9.70;65.00
3770;DHT22;1900;48.890;9.190;2024-01-07T03:11:23;9.70;65.10
3770;DHT22;1900;48.890;9.190;2024-01-07T03:13:49;9.60;65.00
3770;DHT22;1900;48.890;9.190;2024-01-07T03:16:23;9.70;65.10
3770;DHT22;1900;48.890;9.190;2024-01-07T03:18:49;9.60;65.10
3770;DHT22;1900;48.890;9.190;2024-01-07T03:21:19;9.60;65.00
3770;DHT22;1900;48.890;9.190;2024-01-07T03:23:46;9.60;65.00
3770;DHT22;1900;48.890;9.190;2024-01-07T03:26:12;9.60;65.00
3770;DHT22;1900;48.890;9.190;2024-01-07T03:28:38;9.60;65.00
3770;DHT22;1900;48.890;9.190;2024-01-07T03:31:08;9.60;65.00
3770;DHT22;1900;48.890;9.190;2024-01-07T03:33:34;9.60;65.10
3770;DHT22;1900;48.890;9.190;2024-01-07T03:36:00;9.60;65.10
3770;DHT22;1900;48.890;9.190;2024-01-07T03:38:26;9.60;65.20
3770;DHT22;1900;48.890;9.190;2024-01-07T03:40:52;9.60;65.30
3770;DHT22;1900;48.890;9.190;2024-01-07T03:43:18;9.60;65.30
3770;DHT22;1900;48.890;9.190;2024-01-07T03:45:43;9.60;65.30
3770;DHT22;1900;48.890;9.190;2024-01-07T03:48:09;9.60;65.40
3770;DHT22;1900;48.890;9.190;2024-01-07T03:50:35;9.70;65.50
3770;DHT22;1900;48.890;9.190;2024-01-07T03:53:01;9.70;65.40
3770;DHT22;1900;48.890;9.190;2024-01-07T03:55:27;9.70;65.40
3770;DHT22;1900;48.890;9.190;2024-01-07T03:57:53;9.70;65.20
3770;DHT22;1900;48.890;9.190;2024-01-07T04:00:19;9.70;65.10
3770;DHT22;1900;48.890;9.190;2024-01-07T04:02:45;9.70;65.10
3770;DHT22;1900;48.890;9.190;2024-01-07T04:05:14;9.60;65.10
3770;DHT22;1900;48.890;9.190;2024-01-07T04:07:40;9.60;65.10
3770;DHT22;1900;48.890;9.190;2024-01-07T04:10:06;9.60;65.10
3770;DHT22;1900;48.890;9.190;2024-01-07T04:12:32;9.60;65.00
3770;DHT22;1900;48.890;9.190;2024-01-07T04:14:58;9.60;65.00
3770;DHT22;1900;48.890;9.190;2024-01-07T04:17:24;9.60;65.00
3770;DHT22;1900;48.890;9.190;2024-01-07T04:19:49;9.60;65.00
3770;DHT22;1900;48.890;9.190;2024-01-07T04:22:15;9.60;65.00
3770;DHT22;1900;48.890;9.190;2024-01-07T04:24:41;9.50;64.90
3770;DHT22;1900;48.890;9.190;2024-01-07T04:27:07;9.60;65.00
3770;DHT22;1900;48.890;9.190;2024-01-07T04:29:33;9.50;64.90
3770;DHT22;1900;48.890;9.190;2024-01-07T04:31:58;9.50;64.90
3770;DHT22;1900;48.890;9.190;2024-01-07T04:34:24;9.50;64.90
3770;DHT22;1900;48.890;9.190;2024-01-07T04:36:50;9.50;64.90
3770;DHT22;1900;48.890;9.190;2024-01-07T04:39:16;9.50;64.80
3770;DHT22;1900;48.890;9.190;2024-01-07T04:41:42;9.40;64.70
3770;DHT22;1900;48.890;9.190;2024-01-07T04:44:08;9.40;64.70
3770;DHT22;1900;48.890;9.190;2024-01-07T04:46:34;9.40;64.70
3770;DHT22;1900;48.890;9.190;2024-01-07T04:49:01;9.40;64.80
3770;DHT22;1900;48.890;9.190;2024-01-07T04:51:27;9.40;64.80
3770;DHT22;1900;48.890;9.190;2024-01-07T04:53:52;9.40;64.90
3770;DHT22;1900;48.890;9.190;2024-01-07T04:56:18;9.30;64.80
3770;DHT22;1900;48.890;9.190;2024-01-07T04:58:44;9.30;64.80
3770;DHT22;1900;48.890;9.190;2024-01-07T05:01:09;9.40;65.00
3770;DHT22;1900;48.890;9.190;2024-01-07T05:03:35;9.40;65.00
3770;DHT22;1900;48.890;9.190;2024-01-07T05:06:04;9.40;65.00
3770;DHT22;1900;48.890;9.190;2024-01-07T05:08:30;9.40;65.00
3770;DHT22;1900;48.890;9.190;2024-01-07T05:10:56;9.30;64.90
3770;DHT22;1900;48.890;9.190;2024-01-07T05:13:22;9.40;65.00
3770;DHT22;1900;48.890;9.190;2024-01-07T05:15:47;9.30;64.90
3770;DHT22;1900;48.890;9.190;2024-01-07T05:18:27;9.30;64.90
3770;DHT22;1900;48.890;9.190;2024-01-07T05:20:53;9.30;64.90
3770;DHT22;1900;48.890;9.190;2024-01-07T05:23:19;9.30;64.90
3770;DHT22;1900;48.890;9.190;2024-01-07T05:25:46;9.30;64.90
3770;DHT22;1900;48.890;9.190;2024-01-07T05:28:12;9.30;64.90
3770;DHT22;1900;48.890;9.190;2024-01-07T05:30:43;9.30;65.00
3770;DHT22;1900;48.890;9.190;2024-01-07T05:33:09;9.30;64.90
3770;DHT22;1900;48.890;9.190;2024-01-07T05:35:35;9.30;64.80
3770;DHT22;1900;48.890;9.190;2024-01-07T05:38:01;9.20;64.70
3770;DHT22;1900;48.890;9.190;2024-01-07T05:40:27;9.20;64.70
3770;DHT22;1900;48.890;9.190;2024-01-07T05:42:52;9.20;64.70
3770;DHT22;1900;48.890;9.190;2024-01-07T05:45:18;9.20;64.80
3770;DHT22;1900;48.890;9.190;2024-01-07T05:47:44;9.20;64.80
3770;DHT22;1900;48.890;9.190;2024-01-07T05:50:09;9.20;64.80
3770;DHT22;1900;48.890;9.190;2024-01-07T05:52:36;9.20;64.80
3770;DHT22;1900;48.890;9.190;2024-01-07T05:55:02;9.20;64.80
3770;DHT22;1900;48.890;9.190;2024-01-07T05:57:29;9.20;64.90
3770;DHT22;1900;48.890;9.190;2024-01-07T05:59:55;9.10;64.80
3770;DHT22;1900;48.890;9.190;2024-01-07T06:02:20;9.20;65.00
3770;DHT22;1900;48.890;9.190;2024-01-07T06:04:48;9.20;65.00
3770;DHT22;1900;48.890;9.190;2024-01-07T06:07:14;9.20;65.20
3770;DHT22;1900;48.890;9.190;2024-01-07T06:09:39;9.20;65.20
3770;DHT22;1900;48.890;9.190;2024-01-07T06:12:05;9.20;65.20
3770;DHT22;1900;48.890;9.190;2024-01-07T06:14:31;9.20;65.20
3770;DHT22;1900;48.890;9.190;2024-01-07T06:16:57;9.20;65.20
3770;DHT22;1900;48.890;9.190;2024-01-07T06:19:22;9.20;65.20
3770;DHT22;1900;48.890;9.190;2024-01-07T06:21:49;9.20;65.20
3770;DHT22;1900;48.890;9.190;2024-01-07T06:24:14;9.30;65.40
3770;DHT22;1900;48.890;9.190;2024-01-07T06:26:40;9.20;65.30
3770;DHT22;1900;48.890;9.190;2024-01-07T06:29:07;9.30;65.30
3770;DHT22;1900;48.890;9.190;2024-01-07T06:31:35;9.30;65.30
3770;DHT22;1900;48.890;9.190;2024-01-07T06:34:01;9.30;65.30
3770;DHT22;1900;48.890;9.190;2024-01-07T06:36:26;9.30;65.30
3770;DHT22;1900;48.890;9.190;2024-01-07T06:38:52;9.30;65.30
3770;DHT22;1900;48.890;9.190;2024-01-07T06:41:18;9.30;65.20
3770;DHT22;1900;48.890;9.190;2024-01-07T06:43:44;9.30;65.10
3770;DHT22;1900;48.890;9.190;2024-01-07T06:46:10;9.30;65.00
3770;DHT22;1900;48.890;9.190;2024-01-07T06:48:35;9.30;65.00
3770;DHT22;1900;48.890;9.190;2024-01-07T06:51:01;9.30;65.00
3770;DHT22;1900;48.890;9.190;2024-01-07T06:53:27;9.30;65.10
3770;DHT22;1900;48.890;9.190;2024-01-07T06:55:53;9.30;65.00
3770;DHT22;1900;48.890;9.190;2024-01-07T06:58:18;9.30;65.00
3770;DHT22;1900;48.890;9.190;2024-01-07T07:00:44;9.30;65.00
3770;DHT22;1900;48.890;9.190;2024-01-07T07:03:10;9.20;64.90
3770;DHT22;1900;48.890;9.190;2024-01-07T07:05:36;9.20;65.00
3770;DHT22;1900;48.890;9.190;2024-01-07T07:08:02;9.30;65.10
3770;DHT22;1900;48.890;9.190;2024-01-07T07:10:28;9.20;65.10
3770;DHT22;1900;48.890;9.190;2024-01-07T07:12:54;9.30;65.60
3770;DHT22;1900;48.890;9.190;2024-01-07T07:15:19;9.30;65.70
3770;DHT22;1900;48.890;9.190;2024-01-07T07:17:45;9.40;65.80
3770;DHT22;1900;48.890;9.190;2024-01-07T07:20:11;9.40;65.90
3770;DHT22;1900;48.890;9.190;2024-01-07T07:22:37;9.50;65.80
3770;DHT22;1900;48.890;9.190;2024-01-07T07:25:03;9.50;65.90
3770;DHT22;1900;48.890;9.190;2024-01-07T07:27:28;9.50;65.80
3770;DHT22;1900;48.890;9.190;2024-01-07T07:29:54;9.60;65.70
3770;DHT22;1900;48.890;9.190;2024-01-07T07:32:20;9.60;65.60
3770;DHT22;1900;48.890;9.190;2024-01-07T07:34:46;9.60;65.30
3770;DHT22;1900;48.890;9.190;2024-01-07T07:37:13;9.50;65.10
3770;DHT22;1900;48.890;9.190;2024-01-07T07:39:38;9.50;65.00
3770;DHT22;1900;48.890;9.190;2024-01-07T07:42:04;9.50;64.80
3770;DHT22;1900;48.890;9.190;2024-01-07T07:44:32;9.40;64.50
3770;DHT22;1900;48.890;9.190;2024-01-07T07:46:57;9.40;64.50
3770;DHT22;1900;48.890;9.190;2024-01-07T07:49:23;9.40;64.40
3770;DHT22;1900;48.890;9.190;2024-01-07T07:51:49;9.30;64.20
3770;DHT22;1900;48.890;9.190;2024-01-07T07:54:14;9.30;64.20
3770;DHT22;1900;48.890;9.190;2024-01-07T07:56:40;9.20;64.20
3770;DHT22;1900;48.890;9.190;2024-01-07T07:59:06;9.20;64.20
3770;DHT22;1900;48.890;9.190;2024-01-07T08:01:33;9.20;64.20
3770;DHT22;1900;48.890;9.190;2024-01-07T08:03:58;9.20;64.30
3770;DHT22;1900;48.890;9.190;2024-01-07T08:06:24;9.20;64.30
3770;DHT22;1900;48.890;9.190;2024-01-07T08:08:50;9.10;64.20
3770;DHT22;1900;48.890;9.190;2024-01-07T08:11:16;9.10;64.20
3770;DHT22;1900;48.890;9.190;2024-01-07T08:13:41;9.10;64.30
3770;DHT22;1900;48.890;9.190;2024-01-07T08:16:07;9.10;64.30
3770;DHT22;1900;48.890;9.190;2024-01-07T08:18:33;9.10;64.30
3770;DHT22;1900;48.890;9.190;2024-01-07T08:21:00;9.10;64.30
3770;DHT22;1900;48.890;9.190;2024-01-07T08:23:25;9.10;64.30
3770;DHT22;1900;48.890;9.190;2024-01-07T08:25:53;9.10;64.30
3770;DHT22;1900;48.890;9.190;2024-01-07T08:28:19;9.00;64.10
3770;DHT22;1900;48.890;9.190;2024-01-07T08:30:46;9.00;63.90
3770;DHT22;1900;48.890;9.190;2024-01-07T08:33:13;9.00;63.90
3770;DHT22;1900;48.890;9.190;2024-01-07T08:35:38;8.90;63.80
3770;DHT22;1900;48.890;9.190;2024-01-07T08:38:06;8.90;63.70
3770;DHT22;1900;48.890;9.190;2024-01-07T08:40:32;8.90;63.60
3770;DHT22;1900;48.890;9.190;2024-01-07T08:42:58;8.80;63.40
3770;DHT22;1900;48.890;9.190;2024-01-07T08:45:25;8.80;63.40
3770;DHT22;1900;48.890;9.190;2024-01-07T08:47:50;8.80;63.40
3770;DHT22;1900;48.890;9.190;2024-01-07T08:50:16;8.80;63.50
3770;DHT22;1900;48.890;9.190;2024-01-07T08:52:42;8.70;63.40
3770;DHT22;1900;48.890;9.190;2024-01-07T08:55:08;8.70;63.50
3770;DHT22;1900;48.890;9.190;2024-01-07T08:57:36;8.70;63.60
3770;DHT22;1900;48.890;9.190;2024-01-07T09:00:02;8.70;63.70
3770;DHT22;1900;48.890;9.190;2024-01-07T09:02:28;8.70;63.70
3770;DHT22;1900;48.890;9.190;2024-01-07T09:04:54;8.70;63.60
3770;DHT22;1900;48.890;9.190;2024-01-07T09:07:19;8.70;63.70
3770;DHT22;1900;48.890;9.190;2024-01-07T09:09:45;8.70;63.70
3770;DHT22;1900;48.890;9.190;2024-01-07T09:12:11;8.70;63.80
3770;DHT22;1900;48.890;9.190;2024-01-07T09:14:40;8.70;63.90
3770;DHT22;1900;48.890;9.190;2024-01-07T09:17:07;8.70;64.00
3770;DHT22;1900;48.890;9.190;2024-01-07T09:19:32;8.70;63.90
3770;DHT22;1900;48.890;9.190;2024-01-07T09:21:58;8.70;64.00
3770;DHT22;1900;48.890;9.190;2024-01-07T09:24:24;8.70;63.90
3770;DHT22;1900;48.890;9.190;2024-01-07T09:26:50;8.70;63.80
3770;DHT22;1900;48.890;9.190;2024-01-07T09:29:17;8.70;63.70
3770;DHT22;1900;48.890;9.190;2024-01-07T09:31:42;8.70;63.80
3770;DHT22;1900;48.890;9.190;2024-01-07T09:34:08;8.70;63.70
3770;DHT22;1900;48.890;9.190;2024-01-07T09:36:34;8.70;63.70
3770;DHT22;1900;48.890;9.190;2024-01-07T09:39:03;8.70;63.70
3770;DHT22;1900;48.890;9.190;2024-01-07T09:41:31;8.70;63.70
3770;DHT22;1900;48.890;9.190;2024-01-07T09:43:59;8.70;63.80
3770;DHT22;1900;48.890;9.190;2024-01-07T09:46:26;8.70;63.80
3770;DHT22;1900;48.890;9.190;2024-01-07T09:48:54;8.70;63.70
3770;DHT22;1900;48.890;9.190;2024-01-07T09:51:22;8.70;63.80
3770;DHT22;1900;48.890;9.190;2024-01-07T09:53:48;8.70;63.80
3770;DHT22;1900;48.890;9.190;2024-01-07T09:56:23;8.70;63.70
3770;DHT22;1900;48.890;9.190;2024-01-07T09:58:50;8.70;63.60
3770;DHT22;1900;48.890;9.190;2024-01-07T10:01:17;8.70;63.50
3770;DHT22;1900;48.890;9.190;2024-01-07T10:03:44;8.70;63.40
3770;DHT22;1900;48.890;9.190;2024-01-07T10:06:11;8.60;63.30
3770;DHT22;1900;48.890;9.190;2024-01-07T10:08:37;8.70;63.40
3770;DHT22;1900;48.890;9.190;2024-01-07T10:11:03;8.60;63.30
3770;DHT22;1900;48.890;9.190;2024-01-07T10:13:31;8.60;63.20
3770;DHT22;1900;48.890;9.190;2024-01-07T10:15:57;8.60;63.20
3770;DHT22;1900;48.890;9.190;2024-01-07T10:18:22;8.60;63.80
3770;DHT22;1900;48.890;9.190;2024-01-07T10:20:49;8.60;63.20
3770;DHT22;1900;48.890;9.190;2024-01-07T10:23:20;8.50;63.10
3770;DHT22;1900;48.890;9.190;2024-01-07T10:25:46;8.50;63.10
3770;DHT22;1900;48.890;9.190;2024-01-07T10:28:13;8.50;63.00
3770;DHT22;1900;48.890;9.190;2024-01-07T10:30:48;8.50;63.00
3770;DHT22;1900;48.890;9.190;2024-01-07T10:33:17;8.50;63.00
3770;DHT22;1900;48.890;9.190;2024-01-07T10:35:51;8.50;63.10
3770;DHT22;1900;48.890;9.190;2024-01-07T10:38:19;8.50;63.20
3770;DHT22;1900;48.890;9.190;2024-01-07T10:40:48;8.50;63.30
3770;DHT22;1900;48.890;9.190;2024-01-07T10:43:15;8.50;63.40
3770;DHT22;1900;48.890;9.190;2024-01-07T10:45:45;8.50;63.20
3770;DHT22;1900;48.890;9.190;2024-01-07T10:48:17;8.50;63.20
3770;DHT22;1900;48.890;9.190;2024-01-07T10:50:45;8.50;63.20
3770;DHT22;1900;48.890;9.190;2024-01-07T10:53:20;8.50;63.20
3770;DHT22;1900;48.890;9.190;2024-01-07T10:56:02;8.50;63.20
3770;DHT22;1900;48.890;9.190;2024-01-07T10:58:32;8.50;63.70
3770;DHT22;1900;48.890;9.190;2024-01-07T11:01:00;8.50;63.30
3770;DHT22;1900;48.890;9.190;2024-01-07T11:08:59;8.50;63.20
3770;DHT22;1900;48.890;9.190;2024-01-07T11:11:35;8.40;63.00
3770;DHT22;1900;48.890;9.190;2024-01-07T11:14:01;8.50;63.10
3770;DHT22;1900;48.890;9.190;2024-01-07T11:16:42;8.40;62.90
3770;DHT22;1900;48.890;9.190;2024-01-07T11:19:14;8.40;62.90
3770;DHT22;1900;48.890;9.190;2024-01-07T11:21:40;8.40;62.80
3770;DHT22;1900;48.890;9.190;2024-01-07T11:24:06;8.40;62.80
3770;DHT22;1900;48.890;9.190;2024-01-07T11:26:32;8.40;62.80
3770;DHT22;1900;48.890;9.190;2024-01-07T11:28:58;8.40;62.80
3770;DHT22;1900;48.890;9.190;2024-01-07T11:34:05;8.30;62.50
3770;DHT22;1900;48.890;9.190;2024-01-07T11:36:32;8.30;62.50
3770;DHT22;1900;48.890;9.190;2024-01-07T11:39:00;8.30;62.50
3770;DHT22;1900;48.890;9.190;2024-01-07T11:41:30;8.30;62.70
3770;DHT22;1900;48.890;9.190;2024-01-07T11:43:58;8.30;62.70
3770;DHT22;1900;48.890;9.190;2024-01-07T11:46:25;8.30;62.70
3770;DHT22;1900;48.890;9.190;2024-01-07T11:48:57;8.30;62.70
3770;DHT22;1900;48.890;9.190;2024-01-07T11:51:30;8.30;62.60
3770;DHT22;1900;48.890;9.190;2024-01-07T11:53:57;8.30;62.60
3770;DHT22;1900;48.890;9.190;2024-01-07T11:56:25;8.20;62.60
3770;DHT22;1900;48.890;9.190;2024-01-07T11:58:51;8.30;62.70
3770;DHT22;1900;48.890;9.190;2024-01-07T12:01:18;8.30;62.70
3770;DHT22;1900;48.890;9.190;2024-01-07T12:03:44;8.30;62.60
3770;DHT22;1900;48.890;9.190;2024-01-07T12:06:11;8.20;62.40
3770;DHT22;1900;48.890;9.190;2024-01-07T12:08:43;8.20;62.40
3770;DHT22;1900;48.890;9.190;2024-01-07T12:11:13;8.20;62.40
3770;DHT22;1900;48.890;9.190;2024-01-07T12:13:40;8.20;62.50
3770;DHT22;1900;48.890;9.190;2024-01-07T12:16:07;8.20;62.50
3770;DHT22;1900;48.890;9.190;2024-01-07T12:18:35;8.20;62.50
3770;DHT22;1900;48.890;9.190;2024-01-07T12:21:02;8.20;62.50
3770;DHT22;1900;48.890;9.190;2024-01-07T12:23:29;8.20;62.50
3770;DHT22;1900;48.890;9.190;2024-01-07T12:26:07;8.20;62.60
3770;DHT22;1900;48.890;9.190;2024-01-07T12:28:34;8.20;62.50
3770;DHT22;1900;48.890;9.190;2024-01-07T12:30:59;8.20;62.50
3770;DHT22;1900;48.890;9.190;2024-01-07T12:33:27;8.10;62.40
3770;DHT22;1900;48.890;9.190;2024-01-07T12:35:54;8.10;62.30
3770;DHT22;1900;48.890;9.190;2024-01-07T12:38:24;8.10;62.30
3770;DHT22;1900;48.890;9.190;2024-01-07T12:40:51;8.10;62.30
3770;DHT22;1900;48.890;9.190;2024-01-07T12:43:17;8.10;62.10
3770;DHT22;1900;48.890;9.190;2024-01-07T12:45:43;8.00;62.00
3770;DHT22;1900;48.890;9.190;2024-01-07T12:48:09;8.00;61.90
3770;DHT22;1900;48.890;9.190;2024-01-07T12:50:35;8.00;61.80
3770;DHT22;1900;48.890;9.190;2024-01-07T12:53:01;7.90;61.60
3770;DHT22;1900;48.890;9.190;2024-01-07T12:55:27;7.90;61.50
3770;DHT22;1900;48.890;9.190;2024-01-07T12:57:53;7.80;61.50
3770;DHT22;1900;48.890;9.190;2024-01-07T13:00:20;7.80;61.60
3770;DHT22;1900;48.890;9.190;2024-01-07T13:02:46;7.80;61.60
3770;DHT22;1900;48.890;9.190;2024-01-07T13:05:13;7.80;61.70
3770;DHT22;1900;48.890;9.190;2024-01-07T13:07:39;7.70;61.50
3770;DHT22;1900;48.890;9.190;2024-01-07T13:10:06;7.70;61.50
3770;DHT22;1900;48.890;9.190;2024-01-07T13:12:32;7.70;61.60
3770;DHT22;1900;48.890;9.190;2024-01-07T13:14:58;7.70;61.50
3770;DHT22;1900;48.890;9.190;2024-01-07T13:17:24;7.70;61.50
3770;DHT22;1900;48.890;9.190;2024-01-07T13:19:50;7.60;61.30
3770;DHT22;1900;48.890;9.190;2024-01-07T13:22:15;7.60;61.30
3770;DHT22;1900;48.890;9.190;2024-01-07T13:24:41;7.60;61.40
3770;DHT22;1900;48.890;9.190;2024-01-07T13:27:07;7.60;61.30
3770;DHT22;1900;48.890;9.190;2024-01-07T13:29:34;7.50;61.20
3770;DHT22;1900;48.890;9.190;2024-01-07T13:32:00;7.50;61.20
3770;DHT22;1900;48.890;9.190;2024-01-07T13:34:26;7.50;61.20
3770;DHT22;1900;48.890;9.190;2024-01-07T13:36:52;7.50;61.20
3770;DHT22;1900;48.890;9.190;2024-01-07T13:39:18;7.40;61.00
3770;DHT22;1900;48.890;9.190;2024-01-07T13:41:44;7.40;61.00
3770;DHT22;1900;48.890;9.190;2024-01-07T13:44:10;7.40;61.10
3770;DHT22;1900;48.890;9.190;2024-01-07T13:46:46;7.40;61.10
3770;DHT22;1900;48.890;9.190;2024-01-07T13:49:13;7.30;61.00
3770;DHT22;1900;48.890;9.190;2024-01-07T13:51:40;7.30;61.00
3770;DHT22;1900;48.890;9.190;2024-01-07T13:54:06;7.30;61.10
3770;DHT22;1900;48.890;9.190;2024-01-07T13:56:33;7.30;61.00
3770;DHT22;1900;48.890;9.190;2024-01-07T13:59:02;7.30;61.00
3770;DHT22;1900;48.890;9.190;2024-01-07T14:01:29;7.30;61.00
3770;DHT22;1900;48.890;9.190;2024-01-07T14:03:55;7.20;60.90
3770;DHT22;1900;48.890;9.190;2024-01-07T14:06:21;7.20;60.80
3770;DHT22;1900;48.890;9.190;2024-01-07T14:08:47;7.20;60.90
3770;DHT22;1900;48.890;9.190;2024-01-07T14:11:13;7.20;61.10
3770;DHT22;1900;48.890;9.190;2024-01-07T14:13:39;7.20;61.10
3770;DHT22;1900;48.890;9.190;2024-01-07T14:16:05;7.20;61.00
3770;DHT22;1900;48.890;9.190;2024-01-07T14:18:32;7.20;61.10
3770;DHT22;1900;48.890;9.190;2024-01-07T14:20:58;7.20;61.10
3770;DHT22;1900;48.890;9.190;2024-01-07T14:23:24;7.20;61.00
3770;DHT22;1900;48.890;9.190;2024-01-07T14:25:50;7.10;60.80
3770;DHT22;1900;48.890;9.190;2024-01-07T14:28:18;7.10;60.70
3770;DHT22;1900;48.890;9.190;2024-01-07T14:30:44;7.10;60.70
3770;DHT22;1900;48.890;9.190;2024-01-07T14:33:10;7.10;60.80
3770;DHT22;1900;48.890;9.190;2024-01-07T14:35:36;7.10;61.00
3770;DHT22;1900;48.890;9.190;2024-01-07T14:38:01;7.10;61.50
3770;DHT22;1900;48.890;9.190;2024-01-07T14:40:29;7.20;62.20
3770;DHT22;1900;48.890;9.190;2024-01-07T14:42:55;7.30;62.60
3770;DHT22;1900;48.890;9.190;2024-01-07T14:45:24;7.40;63.00
3770;DHT22;1900;48.890;9.190;2024-01-07T14:47:51;7.50;63.20
3770;DHT22;1900;48.890;9.190;2024-01-07T14:50:18;7.50;62.80
3770;DHT22;1900;48.890;9.190;2024-01-07T14:52:44;7.50;62.30
3770;DHT22;1900;48.890;9.190;2024-01-07T14:55:10;7.60;62.10
3770;DHT22;1900;48.890;9.190;2024-01-07T14:57:36;7.50;61.70
3770;DHT22;1900;48.890;9.190;2024-01-07T15:00:02;7.50;61.40
3770;DHT22;1900;48.890;9.190;2024-01-07T15:02:31;7.50;61.30
3770;DHT22;1900;48.890;9.190;2024-01-07T15:04:56;7.50;61.20
3770;DHT22;1900;48.890;9.190;2024-01-07T15:07:25;7.40;61.00
3770;DHT22;1900;48.890;9.190;2024-01-07T15:09:51;7.40;61.00
3770;DHT22;1900;48.890;9.190;2024-01-07T15:12:17;7.40;61.00
3770;DHT22;1900;48.890;9.190;2024-01-07T15:14:43;7.30;60.80
3770;DHT22;1900;48.890;9.190;2024-01-07T15:17:27;7.30;60.80
3770;DHT22;1900;48.890;9.190;2024-01-07T15:19:53;7.30;60.80
3770;DHT22;1900;48.890;9.190;2024-01-07T15:22:19;7.20;60.70
3770;DHT22;1900;48.890;9.190;2024-01-07T15:24:44;7.20;60.60
3770;DHT22;1900;48.890;9.190;2024-01-07T15:27:11;7.10;60.50
3770;DHT22;1900;48.890;9.190;2024-01-07T15:29:36;7.10;60.50
3770;DHT22;1900;48.890;9.190;2024-01-07T15:32:02;7.10;60.50
3770;DHT22;1900;48.890;9.190;2024-01-07T15:34:29;7.10;60.50
3770;DHT22;1900;48.890;9.190;2024-01-07T15:36:55;7.00;60.40
3770;DHT22;1900;48.890;9.190;2024-01-07T15:39:20;7.00;60.50
3770;DHT22;1900;48.890;9.190;2024-01-07T15:41:48;7.00;60.60
3770;DHT22;1900;48.890;9.190;2024-01-07T15:44:13;7.00;60.40
3770;DHT22;1900;48.890;9.190;2024-01-07T15:46:39;7.00;60.40
3770;DHT22;1900;48.890;9.190;2024-01-07T15:49:05;6.90;60.20
3770;DHT22;1900;48.890;9.190;2024-01-07T15:51:31;6.90;60.20
3770;DHT22;1900;48.890;9.190;2024-01-07T15:53:57;6.90;60.20
3770;DHT22;1900;48.890;9.190;2024-01-07T15:56:45;6.80;60.20
3770;DHT22;1900;48.890;9.190;2024-01-07T15:59:11;6.80;60.40
3770;DHT22;1900;48.890;9.190;2024-01-07T16:01:37;6.80;60.50
3770;DHT22;1900;48.890;9.190;2024-01-07T16:04:02;6.80;60.60
3770;DHT22;1900;48.890;9.190;2024-01-07T16:06:28;6.80;60.60
3770;DHT22;1900;48.890;9.190;2024-01-07T16:08:54;6.80;60.60
3770;DHT22;1900;48.890;9.190;2024-01-07T16:11:22;6.80;60.50
3770;DHT22;1900;48.890;9.190;2024-01-07T16:13:48;6.80;60.40
3770;DHT22;1900;48.890;9.190;2024-01-07T16:16:14;6.80;60.30
3770;DHT22;1900;48.890;9.190;2024-01-07T16:18:40;6.80;60.20
3770;DHT22;1900;48.890;9.190;2024-01-07T16:21:05;6.70;60.10